sensor_id;sensor_type;location;lat;lon;timestamp;P1;durP1;ratioP1;P2;durP2;ratioP2
45952;SDS011;31662;52.262;10.522;2023-08-31T00:01:31;2.92;;;2.63;;
45952;SDS011;31662;52.262;10.522;2023-08-31T00:03:57;2.10;;;1.70;;
45952;SDS011;31662;52.262;10.522;2023-08-31T00:06:24;5.47;;;2.70;;
45952;SDS011;31662;52.262;10.522;2023-08-31T00:08:50;4.57;;;3.00;;
45952;SDS011;31662;52.262;10.522;2023-08-31T00:11:15;3.13;;;1.98;;
45952;SDS011;31662;52.262;10.522;2023-08-31T00:13:41;3.03;;;2.50;;
45952;SDS011;31662;52.262;10.522;2023-08-31T00:16:07;4.78;;;3.08;;
45952;SDS011;31662;52.262;10.522;2023-08-31T00:18:34;3.17;;;2.83;;
45952;SDS011;31662;52.262;10.522;2023-08-31T00:21:01;5.95;;;2.88;;
45952;SDS011;31662;52.262;10.522;2023-08-31T00:23:28;6.05;;;3.42;;
45952;SDS011;31662;52.262;10.522;2023-08-31T00:25:53;3.38;;;1.92;;
45952;SDS011;31662;52.262;10.522;2023-08-31T00:28:20;5.15;;;2.70;;
45952;SDS011;31662;52.262;10.522;2023-08-31T00:30:46;3.70;;;2.85;;
45952;SDS011;31662;52.262;10.522;2023-08-31T00:33:13;3.55;;;3.00;;
45952;SDS011;31662;52.262;10.522;2023-08-31T00:35:39;3.00;;;2.70;;
45952;SDS011;31662;52.262;10.522;2023-08-31T00:38:10;4.85;;;3.08;;
45952;SDS011;31662;52.262;10.522;2023-08-31T00:40:42;4.70;;;2.78;;
45952;SDS011;31662;52.262;10.522;2023-08-31T00:43:12;3.47;;;2.55;;
45952;SDS011;31662;52.262;10.522;2023-08-31T00:45:43;3.50;;;3.20;;
45952;SDS011;31662;52.262;10.522;2023-08-31T00:48:09;6.13;;;3.33;;
45952;SDS011;31662;52.262;10.522;2023-08-31T00:50:37;6.93;;;3.15;;
45952;SDS011;31662;52.262;10.522;2023-08-31T00:53:02;5.32;;;3.33;;
45952;SDS011;31662;52.262;10.522;2023-08-31T00:55:29;3.15;;;2.78;;
45952;SDS011;31662;52.262;10.522;2023-08-31T00:57:54;5.88;;;3.47;;
45952;SDS011;31662;52.262;10.522;2023-08-31T01:00:20;4.38;;;3.28;;
45952;SDS011;31662;52.262;10.522;2023-08-31T01:02:57;6.82;;;3.20;;
45952;SDS011;31662;52.262;10.522;2023-08-31T01:08:29;6.20;;;3.17;;
45952;SDS011;31662;52.262;10.522;2023-08-31T01:11:10;3.70;;;2.72;;
45952;SDS011;31662;52.262;10.522;2023-08-31T01:13:53;5.88;;;2.90;;
45952;SDS011;31662;52.262;10.522;2023-08-31T01:18:54;5.80;;;3.92;;
45952;SDS011;31662;52.262;10.522;2023-08-31T01:21:24;5.95;;;3.72;;
45952;SDS011;31662;52.262;10.522;2023-08-31T01:23:55;8.63;;;3.30;;
45952;SDS011;31662;52.262;10.522;2023-08-31T01:26:22;8.00;;;5.68;;
45952;SDS011;31662;52.262;10.522;2023-08-31T01:28:49;9.57;;;6.15;;
45952;SDS011;31662;52.262;10.522;2023-08-31T01:31:16;9.52;;;5.40;;
45952;SDS011;31662;52.262;10.522;2023-08-31T01:33:42;11.43;;;6.03;;
45952;SDS011;31662;52.262;10.522;2023-08-31T01:36:14;10.07;;;5.90;;
45952;SDS011;31662;52.262;10.522;2023-08-31T01:39:01;5.20;;;4.22;;
45952;SDS011;31662;52.262;10.522;2023-08-31T01:41:35;6.28;;;4.07;;
45952;SDS011;31662;52.262;10.522;2023-08-31T01:44:03;6.72;;;4.13;;
45952;SDS011;31662;52.262;10.522;2023-08-31T01:46:30;10.90;;;4.85;;
45952;SDS011;31662;52.262;10.522;2023-08-31T01:48:56;4.75;;;3.25;;
45952;SDS011;31662;52.262;10.522;2023-08-31T01:51:22;5.47;;;2.97;;
45952;SDS011;31662;52.262;10.522;2023-08-31T01:53:47;5.00;;;2.50;;
45952;SDS011;31662;52.262;10.522;2023-08-31T01:56:13;7.00;;;3.17;;
45952;SDS011;31662;52.262;10.522;2023-08-31T01:58:39;7.28;;;3.95;;
45952;SDS011;31662;52.262;10.522;2023-08-31T02:01:04;8.63;;;3.45;;
45952;SDS011;31662;52.262;10.522;2023-08-31T02:03:30;5.05;;;3.42;;
45952;SDS011;31662;52.262;10.522;2023-08-31T02:05:55;6.40;;;4.57;;
45952;SDS011;31662;52.262;10.522;2023-08-31T02:08:21;8.23;;;3.25;;
45952;SDS011;31662;52.262;10.522;2023-08-31T02:10:46;5.22;;;4.05;;
45952;SDS011;31662;52.262;10.522;2023-08-31T02:13:14;7.13;;;3.45;;
45952;SDS011;31662;52.262;10.522;2023-08-31T02:15:40;6.32;;;4.18;;
45952;SDS011;31662;52.262;10.522;2023-08-31T02:18:07;8.82;;;5.47;;
45952;SDS011;31662;52.262;10.522;2023-08-31T02:20:33;6.75;;;3.08;;
45952;SDS011;31662;52.262;10.522;2023-08-31T02:22:59;12.82;;;4.40;;
45952;SDS011;31662;52.262;10.522;2023-08-31T02:25:25;5.50;;;3.20;;
45952;SDS011;31662;52.262;10.522;2023-08-31T02:27:52;12.38;;;5.03;;
45952;SDS011;31662;52.262;10.522;2023-08-31T02:30:18;7.88;;;4.22;;
45952;SDS011;31662;52.262;10.522;2023-08-31T02:32:44;5.72;;;4.43;;
45952;SDS011;31662;52.262;10.522;2023-08-31T02:35:10;6.32;;;3.83;;
45952;SDS011;31662;52.262;10.522;2023-08-31T02:37:37;4.05;;;3.58;;
45952;SDS011;31662;52.262;10.522;2023-08-31T02:40:03;4.95;;;4.03;;
45952;SDS011;31662;52.262;10.522;2023-08-31T02:42:29;7.50;;;3.85;;
45952;SDS011;31662;52.262;10.522;2023-08-31T02:44:54;8.13;;;4.70;;
45952;SDS011;31662;52.262;10.522;2023-08-31T02:47:21;8.05;;;5.07;;
45952;SDS011;31662;52.262;10.522;2023-08-31T02:49:46;7.50;;;4.38;;
45952;SDS011;31662;52.262;10.522;2023-08-31T02:52:12;6.80;;;4.45;;
45952;SDS011;31662;52.262;10.522;2023-08-31T02:54:38;6.85;;;4.00;;
45952;SDS011;31662;52.262;10.522;2023-08-31T02:57:04;6.40;;;5.72;;
45952;SDS011;31662;52.262;10.522;2023-08-31T02:59:29;9.82;;;5.25;;
45952;SDS011;31662;52.262;10.522;2023-08-31T03:01:55;7.45;;;4.57;;
45952;SDS011;31662;52.262;10.522;2023-08-31T03:04:20;6.72;;;4.75;;
45952;SDS011;31662;52.262;10.522;2023-08-31T03:06:46;9.50;;;4.72;;
45952;SDS011;31662;52.262;10.522;2023-08-31T03:09:12;8.60;;;5.32;;
45952;SDS011;31662;52.262;10.522;2023-08-31T03:11:38;7.28;;;4.97;;
45952;SDS011;31662;52.262;10.522;2023-08-31T03:14:04;5.32;;;4.53;;
45952;SDS011;31662;52.262;10.522;2023-08-31T03:16:29;6.25;;;4.03;;
45952;SDS011;31662;52.262;10.522;2023-08-31T03:18:55;10.45;;;5.38;;
45952;SDS011;31662;52.262;10.522;2023-08-31T03:21:20;8.10;;;5.45;;
45952;SDS011;31662;52.262;10.522;2023-08-31T03:23:46;12.65;;;7.05;;
45952;SDS011;31662;52.262;10.522;2023-08-31T03:26:12;9.27;;;6.18;;
45952;SDS011;31662;52.262;10.522;2023-08-31T03:28:37;10.80;;;6.60;;
45952;SDS011;31662;52.262;10.522;2023-08-31T03:31:05;9.52;;;5.07;;
45952;SDS011;31662;52.262;10.522;2023-08-31T03:33:30;10.63;;;6.32;;
45952;SDS011;31662;52.262;10.522;2023-08-31T03:36:00;12.63;;;6.07;;
45952;SDS011;31662;52.262;10.522;2023-08-31T03:38:27;9.18;;;6.53;;
45952;SDS011;31662;52.262;10.522;2023-08-31T03:40:56;9.85;;;5.63;;
45952;SDS011;31662;52.262;10.522;2023-08-31T03:43:22;10.55;;;5.85;;
45952;SDS011;31662;52.262;10.522;2023-08-31T03:45:48;12.43;;;5.57;;
45952;SDS011;31662;52.262;10.522;2023-08-31T03:48:14;10.00;;;7.35;;
45952;SDS011;31662;52.262;10.522;2023-08-31T03:50:39;8.77;;;6.28;;
45952;SDS011;31662;52.262;10.522;2023-08-31T03:53:05;16.02;;;11.25;;
45952;SDS011;31662;52.262;10.522;2023-08-31T03:55:31;74.68;;;53.75;;
45952;SDS011;31662;52.262;10.522;2023-08-31T03:57:56;15.18;;;11.35;;
45952;SDS011;31662;52.262;10.522;2023-08-31T04:00:23;16.63;;;9.77;;
45952;SDS011;31662;52.262;10.522;2023-08-31T04:02:49;16.15;;;9.38;;
45952;SDS011;31662;52.262;10.522;2023-08-31T04:05:14;16.77;;;7.72;;
45952;SDS011;31662;52.262;10.522;2023-08-31T04:07:41;13.65;;;10.60;;
45952;SDS011;31662;52.262;10.522;2023-08-31T04:10:06;13.80;;;6.95;;
45952;SDS011;31662;52.262;10.522;2023-08-31T04:12:32;19.20;;;10.05;;
45952;SDS011;31662;52.262;10.522;2023-08-31T04:14:59;12.18;;;7.85;;
45952;SDS011;31662;52.262;10.522;2023-08-31T04:17:25;13.35;;;7.78;;
45952;SDS011;31662;52.262;10.522;2023-08-31T04:19:51;17.63;;;7.82;;
45952;SDS011;31662;52.262;10.522;2023-08-31T04:22:16;12.73;;;7.57;;
45952;SDS011;31662;52.262;10.522;2023-08-31T04:24:42;10.40;;;7.50;;
45952;SDS011;31662;52.262;10.522;2023-08-31T04:27:08;10.88;;;7.55;;
45952;SDS011;31662;52.262;10.522;2023-08-31T04:29:33;18.50;;;8.10;;
45952;SDS011;31662;52.262;10.522;2023-08-31T04:31:59;11.95;;;7.30;;
45952;SDS011;31662;52.262;10.522;2023-08-31T04:36:51;15.35;;;6.97;;
45952;SDS011;31662;52.262;10.522;2023-08-31T04:39:17;10.18;;;7.78;;
45952;SDS011;31662;52.262;10.522;2023-08-31T04:41:43;17.15;;;9.35;;
45952;SDS011;31662;52.262;10.522;2023-08-31T04:44:08;14.07;;;7.72;;
45952;SDS011;31662;52.262;10.522;2023-08-31T04:46:34;17.80;;;8.05;;
45952;SDS011;31662;52.262;10.522;2023-08-31T04:49:00;11.75;;;8.35;;
45952;SDS011;31662;52.262;10.522;2023-08-31T04:51:29;14.82;;;8.13;;
45952;SDS011;31662;52.262;10.522;2023-08-31T04:54:06;12.90;;;9.38;;
45952;SDS011;31662;52.262;10.522;2023-08-31T04:56:33;13.43;;;9.43;;
45952;SDS011;31662;52.262;10.522;2023-08-31T04:58:59;14.35;;;9.00;;
45952;SDS011;31662;52.262;10.522;2023-08-31T05:01:24;11.20;;;7.95;;
45952;SDS011;31662;52.262;10.522;2023-08-31T05:03:50;17.17;;;7.40;;
45952;SDS011;31662;52.262;10.522;2023-08-31T05:08:42;11.05;;;7.45;;
45952;SDS011;31662;52.262;10.522;2023-08-31T05:11:07;12.95;;;8.27;;
45952;SDS011;31662;52.262;10.522;2023-08-31T05:13:33;13.30;;;8.52;;
45952;SDS011;31662;52.262;10.522;2023-08-31T05:15:59;9.77;;;7.70;;
45952;SDS011;31662;52.262;10.522;2023-08-31T05:18:25;12.45;;;8.13;;
45952;SDS011;31662;52.262;10.522;2023-08-31T05:23:16;14.65;;;7.53;;
45952;SDS011;31662;52.262;10.522;2023-08-31T05:25:42;11.52;;;7.50;;
45952;SDS011;31662;52.262;10.522;2023-08-31T05:28:08;10.85;;;7.78;;
45952;SDS011;31662;52.262;10.522;2023-08-31T05:30:34;12.75;;;9.85;;
45952;SDS011;31662;52.262;10.522;2023-08-31T05:33:00;14.55;;;7.50;;
45952;SDS011;31662;52.262;10.522;2023-08-31T05:35:25;14.15;;;7.57;;
45952;SDS011;31662;52.262;10.522;2023-08-31T05:37:51;11.73;;;6.78;;
45952;SDS011;31662;52.262;10.522;2023-08-31T05:40:17;11.70;;;8.10;;
45952;SDS011;31662;52.262;10.522;2023-08-31T05:42:43;11.30;;;8.40;;
45952;SDS011;31662;52.262;10.522;2023-08-31T05:45:09;17.45;;;9.02;;
45952;SDS011;31662;52.262;10.522;2023-08-31T05:47:34;11.60;;;7.10;;
45952;SDS011;31662;52.262;10.522;2023-08-31T05:50:01;14.45;;;8.88;;
45952;SDS011;31662;52.262;10.522;2023-08-31T05:52:27;10.63;;;7.78;;
45952;SDS011;31662;52.262;10.522;2023-08-31T05:54:52;12.18;;;7.97;;
45952;SDS011;31662;52.262;10.522;2023-08-31T05:59:47;12.90;;;7.90;;
45952;SDS011;31662;52.262;10.522;2023-08-31T06:02:13;19.50;;;9.07;;
45952;SDS011;31662;52.262;10.522;2023-08-31T06:04:39;12.73;;;8.75;;
45952;SDS011;31662;52.262;10.522;2023-08-31T06:07:04;16.80;;;8.70;;
45952;SDS011;31662;52.262;10.522;2023-08-31T06:11:55;16.27;;;7.50;;
45952;SDS011;31662;52.262;10.522;2023-08-31T06:14:21;10.65;;;7.93;;
45952;SDS011;31662;52.262;10.522;2023-08-31T06:16:46;14.18;;;8.57;;
45952;SDS011;31662;52.262;10.522;2023-08-31T06:21:40;12.35;;;8.73;;
45952;SDS011;31662;52.262;10.522;2023-08-31T06:24:06;11.32;;;8.73;;
45952;SDS011;31662;52.262;10.522;2023-08-31T06:26:34;17.70;;;8.75;;
45952;SDS011;31662;52.262;10.522;2023-08-31T06:29:00;9.88;;;7.40;;
45952;SDS011;31662;52.262;10.522;2023-08-31T06:31:26;13.15;;;9.20;;
45952;SDS011;31662;52.262;10.522;2023-08-31T06:36:17;13.73;;;7.78;;
45952;SDS011;31662;52.262;10.522;2023-08-31T06:38:42;10.77;;;7.30;;
45952;SDS011;31662;52.262;10.522;2023-08-31T06:41:09;11.73;;;8.82;;
45952;SDS011;31662;52.262;10.522;2023-08-31T06:43:35;15.13;;;7.70;;
45952;SDS011;31662;52.262;10.522;2023-08-31T06:48:25;13.35;;;7.65;;
45952;SDS011;31662;52.262;10.522;2023-08-31T06:50:51;10.80;;;7.97;;
45952;SDS011;31662;52.262;10.522;2023-08-31T06:53:17;12.55;;;7.72;;
45952;SDS011;31662;52.262;10.522;2023-08-31T06:55:43;9.77;;;6.43;;
45952;SDS011;31662;52.262;10.522;2023-08-31T06:58:09;9.52;;;6.22;;
45952;SDS011;31662;52.262;10.522;2023-08-31T07:00:34;11.45;;;7.03;;
45952;SDS011;31662;52.262;10.522;2023-08-31T07:03:00;15.05;;;7.43;;
45952;SDS011;31662;52.262;10.522;2023-08-31T07:05:26;12.05;;;6.28;;
45952;SDS011;31662;52.262;10.522;2023-08-31T07:07:52;11.55;;;7.47;;
45952;SDS011;31662;52.262;10.522;2023-08-31T07:10:19;8.93;;;6.28;;
45952;SDS011;31662;52.262;10.522;2023-08-31T07:12:45;9.15;;;6.38;;
45952;SDS011;31662;52.262;10.522;2023-08-31T07:15:10;9.63;;;7.45;;
45952;SDS011;31662;52.262;10.522;2023-08-31T07:17:36;9.52;;;6.90;;
45952;SDS011;31662;52.262;10.522;2023-08-31T07:20:02;9.75;;;6.32;;
45952;SDS011;31662;52.262;10.522;2023-08-31T07:22:31;9.70;;;6.40;;
45952;SDS011;31662;52.262;10.522;2023-08-31T07:24:59;10.27;;;7.00;;
45952;SDS011;31662;52.262;10.522;2023-08-31T07:27:25;10.75;;;6.28;;
45952;SDS011;31662;52.262;10.522;2023-08-31T07:29:50;11.95;;;5.75;;
45952;SDS011;31662;52.262;10.522;2023-08-31T07:32:19;5.70;;;5.07;;
45952;SDS011;31662;52.262;10.522;2023-08-31T07:34:44;9.68;;;5.90;;
45952;SDS011;31662;52.262;10.522;2023-08-31T07:37:10;8.77;;;5.85;;
45952;SDS011;31662;52.262;10.522;2023-08-31T07:39:35;8.18;;;5.07;;
45952;SDS011;31662;52.262;10.522;2023-08-31T07:42:01;7.13;;;5.03;;
45952;SDS011;31662;52.262;10.522;2023-08-31T07:44:27;11.27;;;5.32;;
45952;SDS011;31662;52.262;10.522;2023-08-31T07:46:52;4.32;;;3.92;;
45952;SDS011;31662;52.262;10.522;2023-08-31T07:49:18;5.47;;;3.72;;
45952;SDS011;31662;52.262;10.522;2023-08-31T07:51:44;4.43;;;3.63;;
45952;SDS011;31662;52.262;10.522;2023-08-31T07:54:09;6.15;;;3.22;;
45952;SDS011;31662;52.262;10.522;2023-08-31T07:56:35;6.53;;;3.63;;
45952;SDS011;31662;52.262;10.522;2023-08-31T07:59:00;4.53;;;3.05;;
45952;SDS011;31662;52.262;10.522;2023-08-31T08:01:26;5.60;;;3.50;;
45952;SDS011;31662;52.262;10.522;2023-08-31T08:03:52;3.85;;;3.15;;
45952;SDS011;31662;52.262;10.522;2023-08-31T08:06:17;5.20;;;3.72;;
45952;SDS011;31662;52.262;10.522;2023-08-31T08:08:43;5.90;;;3.20;;
45952;SDS011;31662;52.262;10.522;2023-08-31T08:11:09;4.25;;;3.05;;
45952;SDS011;31662;52.262;10.522;2023-08-31T08:13:34;6.18;;;3.47;;
45952;SDS011;31662;52.262;10.522;2023-08-31T08:16:00;5.38;;;2.78;;
45952;SDS011;31662;52.262;10.522;2023-08-31T08:18:26;5.50;;;2.58;;
45952;SDS011;31662;52.262;10.522;2023-08-31T08:20:51;8.75;;;5.43;;
45952;SDS011;31662;52.262;10.522;2023-08-31T08:23:17;6.07;;;3.05;;
45952;SDS011;31662;52.262;10.522;2023-08-31T08:25:43;4.38;;;3.00;;
45952;SDS011;31662;52.262;10.522;2023-08-31T08:28:09;6.10;;;3.70;;
45952;SDS011;31662;52.262;10.522;2023-08-31T08:30:34;5.22;;;3.75;;
45952;SDS011;31662;52.262;10.522;2023-08-31T08:33:00;3.58;;;3.15;;
45952;SDS011;31662;52.262;10.522;2023-08-31T08:35:25;3.33;;;3.00;;
45952;SDS011;31662;52.262;10.522;2023-08-31T08:37:52;7.40;;;2.58;;
45952;SDS011;31662;52.262;10.522;2023-08-31T08:40:17;5.13;;;2.47;;
45952;SDS011;31662;52.262;10.522;2023-08-31T08:42:43;3.83;;;2.08;;
45952;SDS011;31662;52.262;10.522;2023-08-31T08:45:15;6.97;;;2.70;;
45952;SDS011;31662;52.262;10.522;2023-08-31T08:47:42;3.40;;;1.33;;
45952;SDS011;31662;52.262;10.522;2023-08-31T08:50:08;4.95;;;1.50;;
45952;SDS011;31662;52.262;10.522;2023-08-31T08:52:38;5.63;;;1.60;;
45952;SDS011;31662;52.262;10.522;2023-08-31T08:55:05;3.88;;;1.92;;
45952;SDS011;31662;52.262;10.522;2023-08-31T08:57:31;2.97;;;1.77;;
45952;SDS011;31662;52.262;10.522;2023-08-31T08:59:57;6.05;;;1.73;;
45952;SDS011;31662;52.262;10.522;2023-08-31T09:02:23;4.40;;;1.63;;
45952;SDS011;31662;52.262;10.522;2023-08-31T09:04:49;3.83;;;2.15;;
45952;SDS011;31662;52.262;10.522;2023-08-31T09:07:19;3.33;;;1.33;;
45952;SDS011;31662;52.262;10.522;2023-08-31T09:09:49;3.78;;;1.63;;
45952;SDS011;31662;52.262;10.522;2023-08-31T09:12:15;3.15;;;1.58;;
45952;SDS011;31662;52.262;10.522;2023-08-31T09:14:41;3.75;;;1.67;;
45952;SDS011;31662;52.262;10.522;2023-08-31T09:17:06;3.40;;;1.00;;
45952;SDS011;31662;52.262;10.522;2023-08-31T09:19:32;4.47;;;1.70;;
45952;SDS011;31662;52.262;10.522;2023-08-31T09:21:57;3.33;;;1.17;;
45952;SDS011;31662;52.262;10.522;2023-08-31T09:24:23;3.33;;;1.10;;
45952;SDS011;31662;52.262;10.522;2023-08-31T09:26:56;6.47;;;1.42;;
45952;SDS011;31662;52.262;10.522;2023-08-31T09:29:22;4.30;;;1.38;;
45952;SDS011;31662;52.262;10.522;2023-08-31T09:31:48;2.72;;;1.40;;
45952;SDS011;31662;52.262;10.522;2023-08-31T09:34:14;3.28;;;1.60;;
45952;SDS011;31662;52.262;10.522;2023-08-31T09:36:41;3.00;;;1.63;;
45952;SDS011;31662;52.262;10.522;2023-08-31T09:39:07;4.10;;;1.23;;
45952;SDS011;31662;52.262;10.522;2023-08-31T09:41:34;3.00;;;1.40;;
45952;SDS011;31662;52.262;10.522;2023-08-31T09:44:16;2.67;;;1.45;;
45952;SDS011;31662;52.262;10.522;2023-08-31T09:46:44;3.20;;;1.20;;
45952;SDS011;31662;52.262;10.522;2023-08-31T09:49:14;4.47;;;1.17;;
45952;SDS011;31662;52.262;10.522;2023-08-31T09:51:44;5.05;;;1.38;;
45952;SDS011;31662;52.262;10.522;2023-08-31T09:54:14;1.30;;;1.20;;
45952;SDS011;31662;52.262;10.522;2023-08-31T09:56:44;2.05;;;0.95;;
45952;SDS011;31662;52.262;10.522;2023-08-31T09:59:12;3.58;;;0.93;;
45952;SDS011;31662;52.262;10.522;2023-08-31T10:01:39;3.08;;;1.35;;
45952;SDS011;31662;52.262;10.522;2023-08-31T10:04:05;2.88;;;0.80;;
45952;SDS011;31662;52.262;10.522;2023-08-31T10:06:33;3.60;;;1.30;;
45952;SDS011;31662;52.262;10.522;2023-08-31T10:09:01;3.35;;;0.90;;
45952;SDS011;31662;52.262;10.522;2023-08-31T10:11:28;4.25;;;0.80;;
45952;SDS011;31662;52.262;10.522;2023-08-31T10:13:55;3.28;;;0.70;;
45952;SDS011;31662;52.262;10.522;2023-08-31T10:16:22;4.00;;;0.88;;
45952;SDS011;31662;52.262;10.522;2023-08-31T10:18:48;4.13;;;1.52;;
45952;SDS011;31662;52.262;10.522;2023-08-31T10:21:17;1.88;;;1.17;;
45952;SDS011;31662;52.262;10.522;2023-08-31T10:23:46;6.00;;;0.68;;
45952;SDS011;31662;52.262;10.522;2023-08-31T10:26:22;3.33;;;1.40;;
45952;SDS011;31662;52.262;10.522;2023-08-31T10:28:52;1.05;;;0.60;;
45952;SDS011;31662;52.262;10.522;2023-08-31T10:31:18;4.93;;;1.38;;
45952;SDS011;31662;52.262;10.522;2023-08-31T10:33:55;4.03;;;1.25;;
45952;SDS011;31662;52.262;10.522;2023-08-31T10:36:37;3.08;;;1.17;;
45952;SDS011;31662;52.262;10.522;2023-08-31T10:39:10;1.55;;;0.70;;
45952;SDS011;31662;52.262;10.522;2023-08-31T10:41:37;2.03;;;0.90;;
45952;SDS011;31662;52.262;10.522;2023-08-31T10:44:02;4.53;;;0.90;;
45952;SDS011;31662;52.262;10.522;2023-08-31T10:46:43;1.13;;;0.70;;
45952;SDS011;31662;52.262;10.522;2023-08-31T10:51:34;2.53;;;0.60;;
45952;SDS011;31662;52.262;10.522;2023-08-31T10:54:19;2.25;;;0.88;;
45952;SDS011;31662;52.262;10.522;2023-08-31T10:59:16;1.52;;;0.88;;
45952;SDS011;31662;52.262;10.522;2023-08-31T11:04:27;2.92;;;1.00;;
45952;SDS011;31662;52.262;10.522;2023-08-31T11:07:11;2.85;;;1.13;;
45952;SDS011;31662;52.262;10.522;2023-08-31T11:09:43;5.10;;;1.05;;
45952;SDS011;31662;52.262;10.522;2023-08-31T11:12:10;2.30;;;0.90;;
45952;SDS011;31662;52.262;10.522;2023-08-31T11:14:36;2.45;;;1.02;;
45952;SDS011;31662;52.262;10.522;2023-08-31T11:17:02;2.17;;;1.17;;
45952;SDS011;31662;52.262;10.522;2023-08-31T11:19:30;2.63;;;1.40;;
45952;SDS011;31662;52.262;10.522;2023-08-31T11:21:56;2.65;;;1.05;;
45952;SDS011;31662;52.262;10.522;2023-08-31T11:24:22;2.13;;;1.27;;
45952;SDS011;31662;52.262;10.522;2023-08-31T11:26:49;2.13;;;1.45;;
45952;SDS011;31662;52.262;10.522;2023-08-31T11:29:15;3.13;;;1.50;;
45952;SDS011;31662;52.262;10.522;2023-08-31T11:31:41;2.58;;;1.40;;
45952;SDS011;31662;52.262;10.522;2023-08-31T11:34:07;2.35;;;1.40;;
45952;SDS011;31662;52.262;10.522;2023-08-31T11:36:37;1.60;;;1.27;;
45952;SDS011;31662;52.262;10.522;2023-08-31T11:39:03;4.07;;;1.20;;
45952;SDS011;31662;52.262;10.522;2023-08-31T11:41:32;5.78;;;1.67;;
45952;SDS011;31662;52.262;10.522;2023-08-31T11:44:00;3.50;;;1.58;;
45952;SDS011;31662;52.262;10.522;2023-08-31T11:46:26;2.38;;;1.40;;
45952;SDS011;31662;52.262;10.522;2023-08-31T11:48:52;4.68;;;1.55;;
45952;SDS011;31662;52.262;10.522;2023-08-31T11:51:19;1.33;;;1.08;;
45952;SDS011;31662;52.262;10.522;2023-08-31T11:53:45;2.97;;;1.33;;
45952;SDS011;31662;52.262;10.522;2023-08-31T11:56:10;2.65;;;1.40;;
45952;SDS011;31662;52.262;10.522;2023-08-31T11:58:40;2.40;;;1.38;;
45952;SDS011;31662;52.262;10.522;2023-08-31T12:01:11;2.80;;;1.75;;
45952;SDS011;31662;52.262;10.522;2023-08-31T12:03:44;4.22;;;1.70;;
45952;SDS011;31662;52.262;10.522;2023-08-31T12:06:10;3.33;;;1.42;;
45952;SDS011;31662;52.262;10.522;2023-08-31T12:08:36;4.13;;;1.70;;
45952;SDS011;31662;52.262;10.522;2023-08-31T12:11:02;5.68;;;2.53;;
45952;SDS011;31662;52.262;10.522;2023-08-31T12:13:31;3.53;;;1.70;;
45952;SDS011;31662;52.262;10.522;2023-08-31T12:15:57;6.68;;;1.63;;
45952;SDS011;31662;52.262;10.522;2023-08-31T12:18:23;3.30;;;1.77;;
45952;SDS011;31662;52.262;10.522;2023-08-31T12:20:52;3.90;;;1.40;;
45952;SDS011;31662;52.262;10.522;2023-08-31T12:23:20;2.55;;;1.67;;
45952;SDS011;31662;52.262;10.522;2023-08-31T12:28:17;1.55;;;1.10;;
45952;SDS011;31662;52.262;10.522;2023-08-31T12:30:46;6.22;;;2.35;;
45952;SDS011;31662;52.262;10.522;2023-08-31T12:33:13;3.03;;;1.88;;
45952;SDS011;31662;52.262;10.522;2023-08-31T12:35:39;5.88;;;1.73;;
45952;SDS011;31662;52.262;10.522;2023-08-31T12:38:05;2.55;;;1.83;;
45952;SDS011;31662;52.262;10.522;2023-08-31T12:40:30;3.00;;;1.52;;
45952;SDS011;31662;52.262;10.522;2023-08-31T12:42:56;5.70;;;1.40;;
45952;SDS011;31662;52.262;10.522;2023-08-31T12:45:21;2.08;;;1.52;;
45952;SDS011;31662;52.262;10.522;2023-08-31T12:47:47;3.03;;;1.10;;
45952;SDS011;31662;52.262;10.522;2023-08-31T12:50:12;2.55;;;1.58;;
45952;SDS011;31662;52.262;10.522;2023-08-31T12:52:38;2.50;;;1.45;;
45952;SDS011;31662;52.262;10.522;2023-08-31T12:55:09;2.45;;;1.65;;
45952;SDS011;31662;52.262;10.522;2023-08-31T12:57:35;5.05;;;1.08;;
45952;SDS011;31662;52.262;10.522;2023-08-31T13:00:01;3.40;;;1.52;;
45952;SDS011;31662;52.262;10.522;2023-08-31T13:02:29;3.67;;;2.08;;
45952;SDS011;31662;52.262;10.522;2023-08-31T13:04:55;4.43;;;1.17;;
45952;SDS011;31662;52.262;10.522;2023-08-31T13:07:21;3.47;;;1.88;;
45952;SDS011;31662;52.262;10.522;2023-08-31T13:09:46;3.13;;;1.75;;
45952;SDS011;31662;52.262;10.522;2023-08-31T13:12:12;5.75;;;2.00;;
45952;SDS011;31662;52.262;10.522;2023-08-31T13:14:37;2.58;;;1.55;;
45952;SDS011;31662;52.262;10.522;2023-08-31T13:17:04;1.08;;;0.80;;
45952;SDS011;31662;52.262;10.522;2023-08-31T13:19:30;2.95;;;0.90;;
45952;SDS011;31662;52.262;10.522;2023-08-31T13:21:55;1.25;;;0.82;;
45952;SDS011;31662;52.262;10.522;2023-08-31T13:24:21;3.20;;;0.80;;
45952;SDS011;31662;52.262;10.522;2023-08-31T13:26:46;1.92;;;0.77;;
45952;SDS011;31662;52.262;10.522;2023-08-31T13:29:13;1.08;;;0.40;;
45952;SDS011;31662;52.262;10.522;2023-08-31T13:31:39;2.78;;;0.82;;
45952;SDS011;31662;52.262;10.522;2023-08-31T13:34:05;3.63;;;1.55;;
45952;SDS011;31662;52.262;10.522;2023-08-31T13:36:35;0.93;;;0.60;;
45952;SDS011;31662;52.262;10.522;2023-08-31T13:39:01;1.17;;;0.50;;
45952;SDS011;31662;52.262;10.522;2023-08-31T13:41:28;1.48;;;0.77;;
45952;SDS011;31662;52.262;10.522;2023-08-31T13:43:53;21.17;;;0.85;;
45952;SDS011;31662;52.262;10.522;2023-08-31T13:46:19;1.95;;;1.02;;
45952;SDS011;31662;52.262;10.522;2023-08-31T13:48:44;1.00;;;0.35;;
45952;SDS011;31662;52.262;10.522;2023-08-31T13:51:10;2.00;;;0.70;;
45952;SDS011;31662;52.262;10.522;2023-08-31T13:53:36;2.17;;;0.60;;
45952;SDS011;31662;52.262;10.522;2023-08-31T13:56:01;1.20;;;0.70;;
45952;SDS011;31662;52.262;10.522;2023-08-31T13:58:27;0.70;;;0.60;;
45952;SDS011;31662;52.262;10.522;2023-08-31T14:00:52;2.78;;;0.70;;
45952;SDS011;31662;52.262;10.522;2023-08-31T14:03:18;2.08;;;0.60;;
45952;SDS011;31662;52.262;10.522;2023-08-31T14:05:47;4.25;;;0.85;;
45952;SDS011;31662;52.262;10.522;2023-08-31T14:08:14;0.80;;;0.40;;
45952;SDS011;31662;52.262;10.522;2023-08-31T14:10:39;3.13;;;0.38;;
45952;SDS011;31662;52.262;10.522;2023-08-31T14:13:05;2.67;;;0.50;;
45952;SDS011;31662;52.262;10.522;2023-08-31T14:15:31;2.83;;;0.50;;
45952;SDS011;31662;52.262;10.522;2023-08-31T14:17:57;2.22;;;0.70;;
45952;SDS011;31662;52.262;10.522;2023-08-31T14:20:23;2.88;;;0.60;;
45952;SDS011;31662;52.262;10.522;2023-08-31T14:22:48;3.00;;;0.80;;
45952;SDS011;31662;52.262;10.522;2023-08-31T14:25:15;3.08;;;1.20;;
45952;SDS011;31662;52.262;10.522;2023-08-31T14:27:41;1.67;;;0.68;;
45952;SDS011;31662;52.262;10.522;2023-08-31T14:30:07;1.52;;;0.50;;
45952;SDS011;31662;52.262;10.522;2023-08-31T14:32:32;1.45;;;0.60;;
45952;SDS011;31662;52.262;10.522;2023-08-31T14:34:58;0.52;;;0.40;;
45952;SDS011;31662;52.262;10.522;2023-08-31T14:37:24;1.85;;;0.30;;
45952;SDS011;31662;52.262;10.522;2023-08-31T14:39:50;2.15;;;0.40;;
45952;SDS011;31662;52.262;10.522;2023-08-31T14:42:16;0.70;;;0.55;;
45952;SDS011;31662;52.262;10.522;2023-08-31T14:44:42;3.97;;;0.73;;
45952;SDS011;31662;52.262;10.522;2023-08-31T14:47:09;3.63;;;0.60;;
45952;SDS011;31662;52.262;10.522;2023-08-31T14:49:38;4.82;;;0.80;;
45952;SDS011;31662;52.262;10.522;2023-08-31T14:52:05;3.65;;;1.10;;
45952;SDS011;31662;52.262;10.522;2023-08-31T14:54:31;1.80;;;0.70;;
45952;SDS011;31662;52.262;10.522;2023-08-31T14:56:58;1.95;;;0.40;;
45952;SDS011;31662;52.262;10.522;2023-08-31T14:59:24;1.70;;;0.40;;
45952;SDS011;31662;52.262;10.522;2023-08-31T15:01:49;1.17;;;0.60;;
45952;SDS011;31662;52.262;10.522;2023-08-31T15:04:15;2.63;;;0.32;;